Terminal Aerodrome Forecast
Issued by NWS Wilmington, OH

Current Version | Previous Version | Text Only | Print | Product List | Glossary Off
Versions: 1 2 3 4 5 6 7 8 9 10 11 12 13 14 15 16 17 18 19 20 21 22 23 24 25 26 27 28 29 30 31 32 33

000
FTUS41 KILN 200838 AAA
TAFCVG
TAF AMD
KCVG 200838Z 2009/2112 15008KT 4SM RA BR OVC006
     FM201200 18008KT 5SM BR OVC005
     FM201600 21007KT P6SM BKN008
     FM202100 18004KT P6SM SCT012 BKN022
     FM210300 18004KT P6SM BKN012=

USA.gov is the U.S. government's official web portal to all federal, state and local government web resources and services.